sensor_id;sensor_type;location;lat;lon;timestamp;pressure;altitude;pressure_sealevel;temperature;humidity
56604;BME280;42486;47.478;19.036;2023-04-09T00:00:07;100865.28;;;3.60;100.00
56604;BME280;42486;47.478;19.036;2023-04-09T00:03:11;100873.06;;;3.59;100.00
56604;BME280;42486;47.478;19.036;2023-04-09T00:06:14;100868.88;;;3.56;100.00
56604;BME280;42486;47.478;19.036;2023-04-09T00:09:16;100864.44;;;3.60;100.00
56604;BME280;42486;47.478;19.036;2023-04-09T00:12:19;100872.19;;;3.60;100.00
56604;BME280;42486;47.478;19.036;2023-04-09T00:15:22;100867.87;;;3.60;100.00
56604;BME280;42486;47.478;19.036;2023-04-09T00:18:32;100869.44;;;3.64;100.00
56604;BME280;42486;47.478;19.036;2023-04-09T00:21:34;100866.97;;;3.61;100.00
56604;BME280;42486;47.478;19.036;2023-04-09T00:24:37;100864.56;;;3.57;100.00
56604;BME280;42486;47.478;19.036;2023-04-09T00:27:39;100867.03;;;3.60;100.00
56604;BME280;42486;47.478;19.036;2023-04-09T00:30:42;100865.88;;;3.67;100.00
56604;BME280;42486;47.478;19.036;2023-04-09T00:33:44;100868.47;;;3.67;100.00
56604;BME280;42486;47.478;19.036;2023-04-09T00:36:47;100866.69;;;3.69;100.00
56604;BME280;42486;47.478;19.036;2023-04-09T00:39:49;100868.31;;;3.71;100.00
56604;BME280;42486;47.478;19.036;2023-04-09T00:42:52;100866.56;;;3.72;100.00
56604;BME280;42486;47.478;19.036;2023-04-09T00:45:54;100861.31;;;3.75;100.00
56604;BME280;42486;47.478;19.036;2023-04-09T00:48:57;100866.41;;;3.77;100.00
56604;BME280;42486;47.478;19.036;2023-04-09T00:52:00;100866.41;;;3.77;100.00
56604;BME280;42486;47.478;19.036;2023-04-09T00:55:03;100866.34;;;3.78;100.00
56604;BME280;42486;47.478;19.036;2023-04-09T00:58:07;100858.50;;;3.81;100.00
56604;BME280;42486;47.478;19.036;2023-04-09T01:01:10;100864.53;;;3.80;100.00
56604;BME280;42486;47.478;19.036;2023-04-09T01:04:12;100862.03;;;3.79;100.00
56604;BME280;42486;47.478;19.036;2023-04-09T01:07:35;100862.06;;;3.77;100.00
56604;BME280;42486;47.478;19.036;2023-04-09T01:17:02;100866.84;;;3.64;100.00
56604;BME280;42486;47.478;19.036;2023-04-09T01:20:09;100859.97;;;3.65;100.00
56604;BME280;42486;47.478;19.036;2023-04-09T01:29:56;100859.56;;;3.52;100.00
56604;BME280;42486;47.478;19.036;2023-04-09T01:32:59;100856.25;;;3.48;100.00
56604;BME280;42486;47.478;19.036;2023-04-09T01:36:02;100864.16;;;3.44;100.00
56604;BME280;42486;47.478;19.036;2023-04-09T01:39:06;100864.34;;;3.38;100.00
56604;BME280;42486;47.478;19.036;2023-04-09T01:42:11;100866.09;;;3.37;100.00
56604;BME280;42486;47.478;19.036;2023-04-09T01:45:14;100864.44;;;3.36;100.00
56604;BME280;42486;47.478;19.036;2023-04-09T01:48:18;100868.69;;;3.37;100.00
56604;BME280;42486;47.478;19.036;2023-04-09T01:51:22;100870.44;;;3.37;100.00
56604;BME280;42486;47.478;19.036;2023-04-09T01:54:25;100855.84;;;3.36;100.00
56604;BME280;42486;47.478;19.036;2023-04-09T01:57:27;100860.09;;;3.37;100.00
56604;BME280;42486;47.478;19.036;2023-04-09T02:00:34;100860.75;;;3.43;100.00
56604;BME280;42486;47.478;19.036;2023-04-09T02:03:39;100860.06;;;3.38;100.00
56604;BME280;42486;47.478;19.036;2023-04-09T02:09:46;100859.78;;;3.46;100.00
56604;BME280;42486;47.478;19.036;2023-04-09T02:12:50;100863.41;;;3.40;100.00
56604;BME280;42486;47.478;19.036;2023-04-09T02:15:53;100861.16;;;3.31;100.00
56604;BME280;42486;47.478;19.036;2023-04-09T02:18:57;100865.59;;;3.27;100.00
56604;BME280;42486;47.478;19.036;2023-04-09T02:22:03;100865.59;;;3.27;100.00
56604;BME280;42486;47.478;19.036;2023-04-09T02:25:05;100860.63;;;3.21;100.00
56604;BME280;42486;47.478;19.036;2023-04-09T02:28:09;100861.44;;;3.23;100.00
56604;BME280;42486;47.478;19.036;2023-04-09T02:31:11;100849.19;;;3.28;100.00
56604;BME280;42486;47.478;19.036;2023-04-09T02:34:14;100855.00;;;3.35;100.00
56604;BME280;42486;47.478;19.036;2023-04-09T02:37:19;100848.13;;;3.34;100.00
56604;BME280;42486;47.478;19.036;2023-04-09T02:40:23;100852.44;;;3.35;100.00
56604;BME280;42486;47.478;19.036;2023-04-09T02:43:26;100855.62;;;3.42;100.00
56604;BME280;42486;47.478;19.036;2023-04-09T02:46:29;100861.34;;;3.50;100.00
56604;BME280;42486;47.478;19.036;2023-04-09T02:49:32;100852.53;;;3.56;100.00
56604;BME280;42486;47.478;19.036;2023-04-09T02:52:36;100857.37;;;3.65;100.00
56604;BME280;42486;47.478;19.036;2023-04-09T02:55:38;100854.78;;;3.65;100.00
56604;BME280;42486;47.478;19.036;2023-04-09T02:58:41;100850.47;;;3.65;100.00
56604;BME280;42486;47.478;19.036;2023-04-09T03:01:45;100845.19;;;3.68;100.00
56604;BME280;42486;47.478;19.036;2023-04-09T03:04:49;100854.69;;;3.68;100.00
56604;BME280;42486;47.478;19.036;2023-04-09T03:07:53;100857.50;;;3.62;100.00
56604;BME280;42486;47.478;19.036;2023-04-09T03:10:57;100855.91;;;3.58;100.00
56604;BME280;42486;47.478;19.036;2023-04-09T03:14:00;100857.81;;;3.52;100.00
56604;BME280;42486;47.478;19.036;2023-04-09T03:17:03;100856.41;;;3.44;100.00
56604;BME280;42486;47.478;19.036;2023-04-09T03:20:06;100852.03;;;3.46;100.00
56604;BME280;42486;47.478;19.036;2023-04-09T03:23:10;100856.34;;;3.45;100.00
56604;BME280;42486;47.478;19.036;2023-04-09T03:26:13;100848.84;;;3.38;100.00
56604;BME280;42486;47.478;19.036;2023-04-09T03:29:17;100858.19;;;3.42;100.00
56604;BME280;42486;47.478;19.036;2023-04-09T03:32:20;100853.19;;;3.37;100.00
56604;BME280;42486;47.478;19.036;2023-04-09T03:35:23;100848.25;;;3.31;100.00
56604;BME280;42486;47.478;19.036;2023-04-09T03:38:26;100853.53;;;3.28;100.00
56604;BME280;42486;47.478;19.036;2023-04-09T03:41:29;100850.09;;;3.27;100.00
56604;BME280;42486;47.478;19.036;2023-04-09T03:44:33;100857.78;;;3.29;100.00
56604;BME280;42486;47.478;19.036;2023-04-09T03:47:37;100855.88;;;3.34;100.00
56604;BME280;42486;47.478;19.036;2023-04-09T03:50:40;100858.34;;;3.37;100.00
56604;BME280;42486;47.478;19.036;2023-04-09T03:53:43;100855.72;;;3.39;100.00
56604;BME280;42486;47.478;19.036;2023-04-09T03:56:46;100859.16;;;3.39;100.00
56604;BME280;42486;47.478;19.036;2023-04-09T03:59:50;100865.84;;;3.45;100.00
56604;BME280;42486;47.478;19.036;2023-04-09T04:02:53;100861.06;;;3.58;100.00
56604;BME280;42486;47.478;19.036;2023-04-09T04:06:00;100863.94;;;3.73;100.00
56604;BME280;42486;47.478;19.036;2023-04-09T04:09:04;100866.25;;;3.81;100.00
56604;BME280;42486;47.478;19.036;2023-04-09T04:12:08;100874.00;;;3.81;100.00
56604;BME280;42486;47.478;19.036;2023-04-09T04:15:11;100872.38;;;3.79;100.00
56604;BME280;42486;47.478;19.036;2023-04-09T04:18:14;100867.03;;;3.83;100.00
56604;BME280;42486;47.478;19.036;2023-04-09T04:21:17;100870.94;;;3.93;100.00
56604;BME280;42486;47.478;19.036;2023-04-09T04:24:21;100869.09;;;3.97;100.00
56604;BME280;42486;47.478;19.036;2023-04-09T04:27:24;100870.78;;;3.98;100.00
56604;BME280;42486;47.478;19.036;2023-04-09T04:30:27;100879.47;;;3.95;100.00
56604;BME280;42486;47.478;19.036;2023-04-09T04:33:31;100883.66;;;4.00;100.00
56604;BME280;42486;47.478;19.036;2023-04-09T04:36:35;100880.03;;;4.04;100.00
56604;BME280;42486;47.478;19.036;2023-04-09T04:39:38;100885.88;;;4.09;100.00
56604;BME280;42486;47.478;19.036;2023-04-09T04:42:42;100897.06;;;4.09;100.00
56604;BME280;42486;47.478;19.036;2023-04-09T04:45:47;100893.78;;;4.04;100.00
56604;BME280;42486;47.478;19.036;2023-04-09T04:48:53;100889.97;;;4.14;100.00
56604;BME280;42486;47.478;19.036;2023-04-09T04:51:57;100899.13;;;4.23;100.00
56604;BME280;42486;47.478;19.036;2023-04-09T04:55:00;100895.69;;;4.23;100.00
56604;BME280;42486;47.478;19.036;2023-04-09T04:58:04;100894.13;;;4.18;100.00
56604;BME280;42486;47.478;19.036;2023-04-09T05:01:08;100896.31;;;4.29;100.00
56604;BME280;42486;47.478;19.036;2023-04-09T05:04:11;100892.81;;;4.30;100.00
56604;BME280;42486;47.478;19.036;2023-04-09T05:07:15;100899.72;;;4.30;100.00
56604;BME280;42486;47.478;19.036;2023-04-09T05:10:19;100903.88;;;4.34;100.00
56604;BME280;42486;47.478;19.036;2023-04-09T05:13:22;100896.97;;;4.34;100.00
56604;BME280;42486;47.478;19.036;2023-04-09T05:16:25;100901.19;;;4.37;100.00
56604;BME280;42486;47.478;19.036;2023-04-09T05:19:29;100907.25;;;4.36;100.00
56604;BME280;42486;47.478;19.036;2023-04-09T05:22:34;100904.66;;;4.36;100.00
56604;BME280;42486;47.478;19.036;2023-04-09T05:25:38;100907.84;;;4.43;100.00
56604;BME280;42486;47.478;19.036;2023-04-09T05:28:41;100909.22;;;4.51;100.00
56604;BME280;42486;47.478;19.036;2023-04-09T05:31:44;100914.34;;;4.53;100.00
56604;BME280;42486;47.478;19.036;2023-04-09T05:34:48;100912.06;;;4.67;100.00
56604;BME280;42486;47.478;19.036;2023-04-09T05:37:51;100919.63;;;4.72;100.00
56604;BME280;42486;47.478;19.036;2023-04-09T05:40:54;100918.19;;;4.64;100.00
56604;BME280;42486;47.478;19.036;2023-04-09T05:43:58;100922.88;;;4.77;100.00
56604;BME280;42486;47.478;19.036;2023-04-09T05:47:01;100916.50;;;4.85;100.00
56604;BME280;42486;47.478;19.036;2023-04-09T05:50:05;100918.72;;;4.95;100.00
56604;BME280;42486;47.478;19.036;2023-04-09T05:53:09;100926.28;;;4.99;100.00
56604;BME280;42486;47.478;19.036;2023-04-09T05:56:13;100933.06;;;5.02;100.00
56604;BME280;42486;47.478;19.036;2023-04-09T05:59:17;100931.22;;;5.05;100.00
56604;BME280;42486;47.478;19.036;2023-04-09T06:02:21;100934.84;;;5.22;100.00
56604;BME280;42486;47.478;19.036;2023-04-09T06:05:25;100935.50;;;5.27;100.00
56604;BME280;42486;47.478;19.036;2023-04-09T06:08:30;100931.81;;;5.33;100.00
56604;BME280;42486;47.478;19.036;2023-04-09T06:11:33;100944.44;;;5.40;100.00
56604;BME280;42486;47.478;19.036;2023-04-09T06:14:38;100944.16;;;5.46;100.00
56604;BME280;42486;47.478;19.036;2023-04-09T06:17:41;100940.78;;;5.44;100.00
56604;BME280;42486;47.478;19.036;2023-04-09T06:20:44;100946.31;;;5.57;100.00
56604;BME280;42486;47.478;19.036;2023-04-09T06:23:47;100934.59;;;5.48;100.00
56604;BME280;42486;47.478;19.036;2023-04-09T06:26:51;100948.44;;;5.47;100.00
56604;BME280;42486;47.478;19.036;2023-04-09T06:29:55;100943.06;;;5.52;100.00
56604;BME280;42486;47.478;19.036;2023-04-09T06:32:58;100942.13;;;5.53;100.00
56604;BME280;42486;47.478;19.036;2023-04-09T06:36:01;100947.72;;;5.64;100.00
56604;BME280;42486;47.478;19.036;2023-04-09T06:39:05;100943.47;;;5.82;100.00
56604;BME280;42486;47.478;19.036;2023-04-09T06:42:09;100945.03;;;5.86;100.00
56604;BME280;42486;47.478;19.036;2023-04-09T06:45:12;100950.69;;;5.96;100.00
56604;BME280;42486;47.478;19.036;2023-04-09T06:48:16;100950.19;;;6.07;100.00
56604;BME280;42486;47.478;19.036;2023-04-09T06:51:20;100944.53;;;6.17;100.00
56604;BME280;42486;47.478;19.036;2023-04-09T06:54:24;100951.47;;;6.36;100.00
56604;BME280;42486;47.478;19.036;2023-04-09T06:57:28;100948.09;;;6.34;100.00
56604;BME280;42486;47.478;19.036;2023-04-09T07:00:31;100954.03;;;6.55;100.00
56604;BME280;42486;47.478;19.036;2023-04-09T07:03:35;100955.81;;;6.72;100.00
56604;BME280;42486;47.478;19.036;2023-04-09T07:06:38;100961.38;;;6.64;100.00
56604;BME280;42486;47.478;19.036;2023-04-09T07:09:43;100971.00;;;6.43;100.00
56604;BME280;42486;47.478;19.036;2023-04-09T07:12:46;100965.13;;;6.39;100.00
56604;BME280;42486;47.478;19.036;2023-04-09T07:15:50;100960.59;;;6.62;100.00
56604;BME280;42486;47.478;19.036;2023-04-09T07:18:53;100957.03;;;6.65;100.00
56604;BME280;42486;47.478;19.036;2023-04-09T07:21:56;100965.06;;;6.77;100.00
56604;BME280;42486;47.478;19.036;2023-04-09T07:25:00;100973.22;;;6.70;98.47
56604;BME280;42486;47.478;19.036;2023-04-09T07:28:03;100981.38;;;6.98;100.00
56604;BME280;42486;47.478;19.036;2023-04-09T07:31:07;100983.41;;;7.11;98.20
56604;BME280;42486;47.478;19.036;2023-04-09T07:34:11;100989.37;;;6.94;96.76
56604;BME280;42486;47.478;19.036;2023-04-09T07:37:15;100980.22;;;6.87;97.44
56604;BME280;42486;47.478;19.036;2023-04-09T07:40:18;100980.78;;;7.28;94.49
56604;BME280;42486;47.478;19.036;2023-04-09T07:43:22;100986.84;;;7.46;95.36
56604;BME280;42486;47.478;19.036;2023-04-09T07:46:25;100987.13;;;7.75;92.92
56604;BME280;42486;47.478;19.036;2023-04-09T07:49:29;100991.34;;;7.60;91.19
56604;BME280;42486;47.478;19.036;2023-04-09T07:52:32;100989.94;;;7.53;94.55
56604;BME280;42486;47.478;19.036;2023-04-09T07:55:36;100990.28;;;7.64;91.16
56604;BME280;42486;47.478;19.036;2023-04-09T07:58:40;100997.91;;;7.67;90.76
56604;BME280;42486;47.478;19.036;2023-04-09T08:01:44;100993.81;;;7.96;89.80
56604;BME280;42486;47.478;19.036;2023-04-09T08:04:48;100998.59;;;8.53;91.21
56604;BME280;42486;47.478;19.036;2023-04-09T08:07:52;100999.94;;;8.92;87.99
56604;BME280;42486;47.478;19.036;2023-04-09T08:10:55;100997.69;;;8.86;85.89
56604;BME280;42486;47.478;19.036;2023-04-09T08:13:59;101000.47;;;9.43;83.00
56604;BME280;42486;47.478;19.036;2023-04-09T08:17:04;101007.84;;;9.51;79.88
56604;BME280;42486;47.478;19.036;2023-04-09T08:20:08;101010.97;;;9.41;78.98
56604;BME280;42486;47.478;19.036;2023-04-09T08:23:13;101003.97;;;9.58;81.71
56604;BME280;42486;47.478;19.036;2023-04-09T08:26:16;101004.28;;;9.96;81.00
56604;BME280;42486;47.478;19.036;2023-04-09T08:29:19;101007.66;;;9.54;76.11
56604;BME280;42486;47.478;19.036;2023-04-09T08:32:24;101008.38;;;9.11;81.36
56604;BME280;42486;47.478;19.036;2023-04-09T08:35:30;101012.06;;;9.23;78.68
56604;BME280;42486;47.478;19.036;2023-04-09T08:38:35;101009.16;;;8.97;80.94
56604;BME280;42486;47.478;19.036;2023-04-09T08:41:41;101019.63;;;9.72;78.80
56604;BME280;42486;47.478;19.036;2023-04-09T08:44:50;101022.19;;;10.17;74.19
56604;BME280;42486;47.478;19.036;2023-04-09T08:47:55;101024.34;;;10.24;73.85
56604;BME280;42486;47.478;19.036;2023-04-09T08:51:01;101019.84;;;10.82;75.03
56604;BME280;42486;47.478;19.036;2023-04-09T08:54:06;101028.59;;;11.22;71.03
56604;BME280;42486;47.478;19.036;2023-04-09T08:57:09;101028.22;;;9.88;76.99
56604;BME280;42486;47.478;19.036;2023-04-09T09:00:14;101034.94;;;10.64;74.49
56604;BME280;42486;47.478;19.036;2023-04-09T09:03:18;101032.56;;;10.74;70.25
56604;BME280;42486;47.478;19.036;2023-04-09T09:06:23;101038.62;;;10.89;69.23
56604;BME280;42486;47.478;19.036;2023-04-09T09:09:29;101033.87;;;10.81;73.92
56604;BME280;42486;47.478;19.036;2023-04-09T09:15:38;101042.28;;;9.86;74.70
56604;BME280;42486;47.478;19.036;2023-04-09T09:18:41;101043.44;;;10.10;72.74
56604;BME280;42486;47.478;19.036;2023-04-09T09:21:53;101046.31;;;9.91;74.46
56604;BME280;42486;47.478;19.036;2023-04-09T09:24:57;101044.22;;;9.68;75.77
56604;BME280;42486;47.478;19.036;2023-04-09T09:28:07;101042.34;;;10.29;73.50
56604;BME280;42486;47.478;19.036;2023-04-09T09:31:12;101043.81;;;10.47;67.98
56604;BME280;42486;47.478;19.036;2023-04-09T09:34:17;101051.75;;;10.17;70.87
56604;BME280;42486;47.478;19.036;2023-04-09T09:37:25;101042.12;;;10.03;72.37
56604;BME280;42486;47.478;19.036;2023-04-09T09:40:30;101041.00;;;10.07;73.55
56604;BME280;42486;47.478;19.036;2023-04-09T09:43:38;101032.31;;;10.21;73.65
56604;BME280;42486;47.478;19.036;2023-04-09T09:46:45;101034.88;;;10.37;73.89
56604;BME280;42486;47.478;19.036;2023-04-09T09:49:48;101039.22;;;9.93;75.84
56604;BME280;42486;47.478;19.036;2023-04-09T09:53:02;101035.34;;;10.01;75.43
56604;BME280;42486;47.478;19.036;2023-04-09T09:56:11;101030.00;;;9.88;72.80
56604;BME280;42486;47.478;19.036;2023-04-09T09:59:19;101031.59;;;9.46;73.93
56604;BME280;42486;47.478;19.036;2023-04-09T10:02:24;101030.25;;;9.69;74.06
56604;BME280;42486;47.478;19.036;2023-04-09T10:05:33;101025.75;;;8.96;75.09
56604;BME280;42486;47.478;19.036;2023-04-09T10:08:39;101025.84;;;9.55;76.70
56604;BME280;42486;47.478;19.036;2023-04-09T10:11:44;101035.03;;;9.77;75.40
56604;BME280;42486;47.478;19.036;2023-04-09T10:14:52;101029.06;;;9.89;75.29
56604;BME280;42486;47.478;19.036;2023-04-09T10:17:59;101026.72;;;9.70;77.16
56604;BME280;42486;47.478;19.036;2023-04-09T10:21:16;101033.22;;;9.33;74.42
56604;BME280;42486;47.478;19.036;2023-04-09T10:24:25;101031.69;;;9.44;76.24
56604;BME280;42486;47.478;19.036;2023-04-09T10:27:29;101029.47;;;9.53;80.26
56604;BME280;42486;47.478;19.036;2023-04-09T10:30:34;101029.87;;;9.61;76.10
56604;BME280;42486;47.478;19.036;2023-04-09T10:33:39;101029.25;;;9.41;76.50
56604;BME280;42486;47.478;19.036;2023-04-09T10:36:51;101031.56;;;9.32;79.61
56604;BME280;42486;47.478;19.036;2023-04-09T10:39:55;101020.19;;;9.63;76.40
56604;BME280;42486;47.478;19.036;2023-04-09T10:43:00;101033.94;;;10.09;74.67
56604;BME280;42486;47.478;19.036;2023-04-09T10:46:06;101028.38;;;10.30;72.89
56604;BME280;42486;47.478;19.036;2023-04-09T10:49:11;101031.41;;;10.22;73.73
56604;BME280;42486;47.478;19.036;2023-04-09T10:52:16;101027.22;;;10.90;75.65
56604;BME280;42486;47.478;19.036;2023-04-09T10:55:39;101027.06;;;11.06;69.11
56604;BME280;42486;47.478;19.036;2023-04-09T10:58:43;101023.03;;;11.14;70.22
56604;BME280;42486;47.478;19.036;2023-04-09T11:01:52;101026.44;;;10.61;72.16
56604;BME280;42486;47.478;19.036;2023-04-09T11:08:05;101027.00;;;10.66;69.42
56604;BME280;42486;47.478;19.036;2023-04-09T11:11:09;101021.19;;;10.75;71.54
56604;BME280;42486;47.478;19.036;2023-04-09T11:14:18;101017.00;;;10.99;71.80
56604;BME280;42486;47.478;19.036;2023-04-09T11:17:21;101024.50;;;10.91;71.11
56604;BME280;42486;47.478;19.036;2023-04-09T11:20:25;101026.38;;;10.89;70.78
56604;BME280;42486;47.478;19.036;2023-04-09T11:23:29;101018.56;;;10.48;69.85
56604;BME280;42486;47.478;19.036;2023-04-09T11:26:34;101021.25;;;10.46;71.06
56604;BME280;42486;47.478;19.036;2023-04-09T11:29:38;101020.94;;;10.65;71.01
56604;BME280;42486;47.478;19.036;2023-04-09T11:32:42;101014.13;;;10.63;70.14
56604;BME280;42486;47.478;19.036;2023-04-09T11:35:46;101015.12;;;11.01;72.46
56604;BME280;42486;47.478;19.036;2023-04-09T11:38:50;101013.50;;;11.13;71.84
56604;BME280;42486;47.478;19.036;2023-04-09T11:41:54;101014.97;;;10.90;68.69
56604;BME280;42486;47.478;19.036;2023-04-09T11:44:57;101010.53;;;11.05;73.32
56604;BME280;42486;47.478;19.036;2023-04-09T11:48:01;101014.34;;;10.87;68.36
56604;BME280;42486;47.478;19.036;2023-04-09T11:51:05;101007.78;;;10.67;69.32
56604;BME280;42486;47.478;19.036;2023-04-09T11:54:09;101008.72;;;10.93;69.62
56604;BME280;42486;47.478;19.036;2023-04-09T11:57:14;101011.03;;;10.70;68.80
56604;BME280;42486;47.478;19.036;2023-04-09T12:00:19;101013.75;;;10.96;68.66
56604;BME280;42486;47.478;19.036;2023-04-09T12:03:29;101015.97;;;10.75;70.71
56604;BME280;42486;47.478;19.036;2023-04-09T12:06:39;101017.25;;;10.82;69.41
56604;BME280;42486;47.478;19.036;2023-04-09T12:09:46;101009.53;;;11.20;67.99
56604;BME280;42486;47.478;19.036;2023-04-09T12:12:49;101017.28;;;11.22;66.71
56604;BME280;42486;47.478;19.036;2023-04-09T12:15:52;101011.00;;;10.14;69.36
56604;BME280;42486;47.478;19.036;2023-04-09T12:19:04;101008.12;;;10.75;70.88
56604;BME280;42486;47.478;19.036;2023-04-09T12:22:08;101003.06;;;11.26;70.30
56604;BME280;42486;47.478;19.036;2023-04-09T12:25:11;101007.63;;;11.50;68.87
56604;BME280;42486;47.478;19.036;2023-04-09T12:28:14;101006.63;;;11.38;66.18
56604;BME280;42486;47.478;19.036;2023-04-09T12:31:19;101006.75;;;11.36;68.90
56604;BME280;42486;47.478;19.036;2023-04-09T12:34:22;101005.31;;;11.05;67.57
56604;BME280;42486;47.478;19.036;2023-04-09T12:37:26;100996.63;;;11.05;65.77
56604;BME280;42486;47.478;19.036;2023-04-09T12:40:30;100989.16;;;11.26;69.71
56604;BME280;42486;47.478;19.036;2023-04-09T12:43:33;100997.88;;;11.64;67.77
56604;BME280;42486;47.478;19.036;2023-04-09T12:46:36;100991.47;;;11.43;63.36
56604;BME280;42486;47.478;19.036;2023-04-09T12:49:39;100991.44;;;11.30;65.24
56604;BME280;42486;47.478;19.036;2023-04-09T12:52:46;100989.69;;;11.31;66.63
56604;BME280;42486;47.478;19.036;2023-04-09T12:55:49;100979.94;;;11.20;68.50
56604;BME280;42486;47.478;19.036;2023-04-09T12:58:52;100985.44;;;11.68;63.43
56604;BME280;42486;47.478;19.036;2023-04-09T13:01:55;100991.38;;;11.83;62.50
56604;BME280;42486;47.478;19.036;2023-04-09T13:04:58;100984.47;;;12.20;61.54
56604;BME280;42486;47.478;19.036;2023-04-09T13:08:02;100976.72;;;12.19;58.48
56604;BME280;42486;47.478;19.036;2023-04-09T13:11:05;100974.09;;;12.31;60.56
56604;BME280;42486;47.478;19.036;2023-04-09T13:14:08;100971.53;;;12.43;58.67
56604;BME280;42486;47.478;19.036;2023-04-09T13:17:14;100972.19;;;12.57;59.96
56604;BME280;42486;47.478;19.036;2023-04-09T13:20:17;100976.28;;;13.10;61.06
56604;BME280;42486;47.478;19.036;2023-04-09T13:23:20;100966.34;;;13.02;58.48
56604;BME280;42486;47.478;19.036;2023-04-09T13:26:23;100971.91;;;12.97;59.46
56604;BME280;42486;47.478;19.036;2023-04-09T13:29:26;100967.25;;;13.14;58.81
56604;BME280;42486;47.478;19.036;2023-04-09T13:32:30;100966.81;;;13.31;56.86
56604;BME280;42486;47.478;19.036;2023-04-09T13:35:33;100966.91;;;13.65;58.45
56604;BME280;42486;47.478;19.036;2023-04-09T13:38:35;100965.78;;;13.45;54.92
56604;BME280;42486;47.478;19.036;2023-04-09T13:41:38;100960.19;;;13.72;57.55
56604;BME280;42486;47.478;19.036;2023-04-09T13:44:41;100964.84;;;13.57;57.36
56604;BME280;42486;47.478;19.036;2023-04-09T13:47:46;100956.00;;;13.47;57.77
56604;BME280;42486;47.478;19.036;2023-04-09T13:50:49;100961.72;;;13.30;55.78
56604;BME280;42486;47.478;19.036;2023-04-09T13:53:51;100960.75;;;13.31;54.49
56604;BME280;42486;47.478;19.036;2023-04-09T13:56:54;100960.56;;;13.21;54.34
56604;BME280;42486;47.478;19.036;2023-04-09T13:59:57;100955.03;;;13.48;53.58
56604;BME280;42486;47.478;19.036;2023-04-09T14:03:03;100957.81;;;13.58;55.92
56604;BME280;42486;47.478;19.036;2023-04-09T14:06:06;100951.13;;;12.83;52.25
56604;BME280;42486;47.478;19.036;2023-04-09T14:09:10;100946.28;;;11.66;54.44
56604;BME280;42486;47.478;19.036;2023-04-09T14:12:13;100942.22;;;11.62;57.80
56604;BME280;42486;47.478;19.036;2023-04-09T14:15:15;100938.09;;;11.71;56.98
56604;BME280;42486;47.478;19.036;2023-04-09T14:18:18;100938.94;;;11.84;56.93
56604;BME280;42486;47.478;19.036;2023-04-09T14:21:21;100943.13;;;11.61;57.44
56604;BME280;42486;47.478;19.036;2023-04-09T14:24:24;100932.78;;;11.60;57.02
56604;BME280;42486;47.478;19.036;2023-04-09T14:27:27;100927.31;;;11.50;59.90
56604;BME280;42486;47.478;19.036;2023-04-09T14:30:30;100926.81;;;11.45;60.40
56604;BME280;42486;47.478;19.036;2023-04-09T14:33:32;100929.41;;;11.45;61.61
56604;BME280;42486;47.478;19.036;2023-04-09T14:36:35;100926.34;;;11.00;58.01
56604;BME280;42486;47.478;19.036;2023-04-09T14:39:38;100924.47;;;11.02;58.31
56604;BME280;42486;47.478;19.036;2023-04-09T14:42:41;100926.97;;;11.16;58.68
56604;BME280;42486;47.478;19.036;2023-04-09T14:45:44;100923.44;;;11.43;61.64
56604;BME280;42486;47.478;19.036;2023-04-09T14:48:46;100921.25;;;11.24;59.09
56604;BME280;42486;47.478;19.036;2023-04-09T14:51:50;100925.22;;;11.30;60.38
56604;BME280;42486;47.478;19.036;2023-04-09T14:54:53;100919.88;;;11.57;61.36
56604;BME280;42486;47.478;19.036;2023-04-09T14:57:55;100918.31;;;12.05;62.49
56604;BME280;42486;47.478;19.036;2023-04-09T15:00:58;100915.94;;;12.26;55.93
56604;BME280;42486;47.478;19.036;2023-04-09T15:04:01;100917.56;;;12.40;58.51
56604;BME280;42486;47.478;19.036;2023-04-09T15:07:04;100918.84;;;12.34;57.15
56604;BME280;42486;47.478;19.036;2023-04-09T15:10:08;100913.34;;;12.50;59.07
56604;BME280;42486;47.478;19.036;2023-04-09T15:13:10;100918.44;;;12.76;55.87
56604;BME280;42486;47.478;19.036;2023-04-09T15:16:20;100917.00;;;12.72;53.42
56604;BME280;42486;47.478;19.036;2023-04-09T15:19:23;100908.94;;;12.14;54.72
56604;BME280;42486;47.478;19.036;2023-04-09T15:22:25;100905.72;;;12.10;56.20
56604;BME280;42486;47.478;19.036;2023-04-09T15:25:27;100912.09;;;12.43;53.72
56604;BME280;42486;47.478;19.036;2023-04-09T15:28:30;100903.25;;;12.20;55.10
56604;BME280;42486;47.478;19.036;2023-04-09T15:31:33;100906.94;;;12.42;55.29
56604;BME280;42486;47.478;19.036;2023-04-09T15:34:35;100902.81;;;12.02;54.73
56604;BME280;42486;47.478;19.036;2023-04-09T15:37:38;100903.22;;;11.83;57.96
56604;BME280;42486;47.478;19.036;2023-04-09T15:40:41;100906.28;;;11.90;57.31
56604;BME280;42486;47.478;19.036;2023-04-09T15:43:44;100903.88;;;11.74;56.41
56604;BME280;42486;47.478;19.036;2023-04-09T15:46:47;100905.75;;;11.59;56.64
56604;BME280;42486;47.478;19.036;2023-04-09T15:49:49;100908.47;;;11.32;59.18
56604;BME280;42486;47.478;19.036;2023-04-09T15:52:54;100912.03;;;11.18;57.66
56604;BME280;42486;47.478;19.036;2023-04-09T15:55:57;100905.63;;;10.97;58.76
56604;BME280;42486;47.478;19.036;2023-04-09T15:59:00;100907.69;;;10.92;58.16
56604;BME280;42486;47.478;19.036;2023-04-09T16:02:03;100903.31;;;10.92;59.65
56604;BME280;42486;47.478;19.036;2023-04-09T16:05:09;100907.66;;;10.79;58.12
56604;BME280;42486;47.478;19.036;2023-04-09T16:08:14;100903.44;;;10.64;59.44
56604;BME280;42486;47.478;19.036;2023-04-09T16:11:17;100905.97;;;10.38;61.26